Time;durP1;ratioP1;P1;durP2;ratioP2;P2;SDS_P1;SDS_P2;PMS_P1;PMS_P2;Temp;Humidity;BMP_temperature;BMP_pressure;BME280_temperature;BME280_humidity;BME280_pressure;Samples;Min_cycle;Max_cycle;Signal;HPM_P1;HPM_P2
2022/05/02 00:02:24;;;;;;;6.82;5.68;;;4.20;99.90;;;;;;5091989;28;20101;-78
2022/05/02 00:04:51;;;;;;;9.82;6.32;;;4.20;99.90;;;;;;5086278;28;20051;-78
2022/05/02 00:07:17;;;;;;;8.52;5.88;;;4.20;99.90;;;;;;5107638;28;20531;-78
2022/05/02 00:09:43;;;;;;;8.20;6.32;;;4.20;99.90;;;;;;5093446;28;20135;-78
2022/05/02 00:12:09;;;;;;;9.20;6.07;;;4.20;99.90;;;;;;5091244;28;20047;-78
2022/05/02 00:14:35;;;;;;;7.05;4.82;;;4.20;99.90;;;;;;5105925;28;20165;-78
2022/05/02 00:17:01;;;;;;;7.40;6.28;;;4.10;99.90;;;;;;5111935;28;20118;-78
2022/05/02 00:19:26;;;;;;;7.65;6.07;;;4.10;99.90;;;;;;5091080;28;20384;-78
2022/05/02 00:21:52;;;;;;;7.15;6.03;;;4.10;99.90;;;;;;5092460;28;20115;-78
2022/05/02 00:24:18;;;;;;;13.07;6.55;;;4.00;99.90;;;;;;5092004;28;20051;-78
2022/05/02 00:26:44;;;;;;;8.90;6.32;;;4.00;99.90;;;;;;5092547;28;20036;-78
2022/05/02 00:29:10;;;;;;;6.45;5.13;;;4.00;99.90;;;;;;5091561;28;20544;-78
2022/05/02 00:31:35;;;;;;;8.25;5.80;;;4.10;99.90;;;;;;5105952;28;20084;-78
2022/05/02 00:34:01;;;;;;;11.57;6.43;;;4.00;99.90;;;;;;5093381;28;20119;-78
2022/05/02 00:36:27;;;;;;;6.22;5.63;;;4.00;99.90;;;;;;5091406;28;20089;-78
2022/05/02 00:38:53;;;;;;;7.88;6.32;;;4.00;99.90;;;;;;5102258;28;20079;-78
2022/05/02 00:41:22;;;;;;;8.95;5.82;;;3.90;99.90;;;;;;5093250;28;20031;-78
2022/05/02 00:43:48;;;;;;;9.73;6.50;;;3.90;99.90;;;;;;5091425;28;20509;-79
2022/05/02 00:46:24;;;;;;;7.28;5.80;;;3.90;99.90;;;;;;5106066;28;20398;-78
2022/05/02 00:48:52;;;;;;;7.57;6.07;;;3.90;99.90;;;;;;5091324;28;20095;-78
2022/05/02 00:51:19;;;;;;;8.25;6.72;;;3.80;99.90;;;;;;5092019;28;20068;-78
2022/05/02 00:53:49;;;;;;;11.43;7.35;;;3.80;99.90;;;;;;5047310;28;1237873;-79
2022/05/02 00:56:16;;;;;;;8.95;6.65;;;3.70;99.90;;;;;;5094117;28;20495;-79
2022/05/02 00:58:42;;;;;;;7.47;6.13;;;3.70;99.90;;;;;;5093391;28;20123;-79
2022/05/02 01:01:08;;;;;;;7.57;6.75;;;3.70;99.90;;;;;;5086077;28;20047;-78
2022/05/02 01:03:35;;;;;;;11.93;6.05;;;3.70;99.90;;;;;;5112139;28;20577;-78
2022/05/02 01:08:47;;;;;;;8.07;6.55;;;3.70;99.90;;;;;;5111424;28;20478;-78
2022/05/02 01:11:13;;;;;;;7.25;6.47;;;3.60;99.90;;;;;;5099606;28;20084;-79
2022/05/02 01:13:44;;;;;;;9.90;7.10;;;3.60;99.90;;;;;;5112661;28;20483;-79
2022/05/02 01:16:18;;;;;;;8.82;6.55;;;3.60;99.90;;;;;;5115960;28;20071;-79
2022/05/02 01:18:45;;;;;;;8.63;6.20;;;3.60;99.90;;;;;;5105450;28;20101;-79
2022/05/02 01:21:21;;;;;;;10.18;6.53;;;3.60;99.90;;;;;;5110898;28;20070;-78
2022/05/02 01:23:51;;;;;;;9.98;6.80;;;3.60;99.90;;;;;;5110102;28;20043;-79
2022/05/02 01:26:18;;;;;;;10.80;6.50;;;3.60;99.90;;;;;;5093265;28;20128;-79
2022/05/02 01:28:46;;;;;;;6.40;5.68;;;3.60;99.90;;;;;;5091621;28;20043;-79
2022/05/02 01:31:13;;;;;;;8.48;5.93;;;3.60;99.90;;;;;;5091700;28;20044;-78
2022/05/02 01:33:39;;;;;;;8.50;6.13;;;3.50;99.90;;;;;;5091930;28;20394;-78
2022/05/02 01:36:06;;;;;;;7.60;6.50;;;3.60;99.90;;;;;;5093874;28;20036;-78
2022/05/02 01:38:31;;;;;;;7.32;6.40;;;3.50;99.90;;;;;;5110459;28;20044;-79
2022/05/02 01:40:59;;;;;;;8.82;7.07;;;3.40;99.90;;;;;;5092298;28;20040;-78
2022/05/02 01:43:26;;;;;;;10.73;8.13;;;3.40;99.90;;;;;;5092090;28;20052;-78
2022/05/02 01:45:52;;;;;;;10.10;6.75;;;3.40;99.90;;;;;;5092907;28;20387;-78
2022/05/02 01:48:17;;;;;;;11.10;6.53;;;3.40;99.90;;;;;;5093998;28;20048;-78
2022/05/02 01:50:43;;;;;;;6.88;6.18;;;3.40;99.90;;;;;;5096132;28;20066;-78
2022/05/02 01:53:09;;;;;;;12.23;9.43;;;3.40;99.90;;;;;;5112823;28;20501;-79
2022/05/02 01:55:35;;;;;;;15.40;8.60;;;3.40;99.90;;;;;;5114139;28;20149;-79
2022/05/02 01:58:00;;;;;;;12.45;7.95;;;3.40;99.90;;;;;;5116225;28;20039;-79
2022/05/02 02:00:26;;;;;;;12.80;8.32;;;3.50;99.90;;;;;;5115198;28;20531;-79
2022/05/02 02:02:52;;;;;;;11.30;9.02;;;3.50;99.90;;;;;;5115965;28;20425;-79
2022/05/02 02:08:02;;;;;;;10.95;7.45;;;3.40;99.90;;;;;;5107089;28;20044;-78
2022/05/02 02:10:28;;;;;;;13.45;9.00;;;3.40;99.90;;;;;;5129462;27;20047;-79
2022/05/02 02:12:54;;;;;;;10.05;7.53;;;3.40;99.90;;;;;;5116662;28;20071;-79
2022/05/02 02:15:19;;;;;;;12.23;8.80;;;3.40;99.90;;;;;;5112165;28;20407;-79
2022/05/02 02:17:45;;;;;;;10.63;8.32;;;3.40;99.90;;;;;;5095238;28;20062;-79
2022/05/02 02:20:12;;;;;;;11.63;8.18;;;3.40;99.90;;;;;;5097641;28;20047;-79
2022/05/02 02:22:39;;;;;;;13.43;7.97;;;3.30;99.90;;;;;;5114825;28;20433;-79
2022/05/02 02:25:05;;;;;;;11.52;8.63;;;3.30;99.90;;;;;;5113673;28;20039;-79
2022/05/02 02:27:32;;;;;;;11.63;8.73;;;3.30;99.90;;;;;;5115154;28;20048;-79
2022/05/02 02:29:59;;;;;;;12.48;9.30;;;3.30;99.90;;;;;;5129779;27;20048;-79
2022/05/02 02:32:26;;;;;;;13.77;9.32;;;3.30;99.90;;;;;;5114077;28;20035;-79
2022/05/02 02:34:51;;;;;;;12.13;8.93;;;3.20;99.90;;;;;;5113363;28;20040;-79
2022/05/02 02:37:17;;;;;;;10.77;8.85;;;3.30;99.90;;;;;;5115915;28;20070;-78
2022/05/02 02:39:44;;;;;;;15.63;9.70;;;3.20;99.90;;;;;;5108661;28;20088;-79
2022/05/02 02:42:10;;;;;;;12.07;10.35;;;3.20;99.90;;;;;;5109506;28;20051;-79
2022/05/02 02:44:36;;;;;;;14.35;9.65;;;3.30;99.90;;;;;;5114701;28;20044;-79
2022/05/02 02:47:02;;;;;;;15.52;10.07;;;3.30;99.90;;;;;;5112933;28;20172;-79
2022/05/02 02:49:28;;;;;;;13.02;9.35;;;3.30;99.90;;;;;;5124581;27;20123;-79
2022/05/02 02:51:54;;;;;;;10.57;8.75;;;3.30;99.90;;;;;;5095410;28;20123;-78
2022/05/02 02:54:20;;;;;;;8.98;8.02;;;3.20;99.90;;;;;;5113911;28;20169;-78
2022/05/02 02:56:46;;;;;;;12.70;9.43;;;3.20;99.90;;;;;;5131837;27;20043;-78
2022/05/02 02:59:12;;;;;;;10.07;8.52;;;3.20;99.90;;;;;;5111586;28;20040;-78
2022/05/02 03:01:39;;;;;;;12.07;8.05;;;3.20;99.90;;;;;;5114808;28;20047;-78
2022/05/02 03:06:50;;;;;;;9.40;7.18;;;3.10;99.90;;;;;;5112114;28;20082;-78
2022/05/02 03:09:16;;;;;;;9.20;6.97;;;3.10;99.90;;;;;;5113924;28;20478;-78
2022/05/02 03:11:42;;;;;;;12.38;7.40;;;3.10;99.90;;;;;;5113046;28;20042;-78
2022/05/02 03:14:08;;;;;;;12.07;7.82;;;3.10;99.90;;;;;;5096214;28;20109;-78
2022/05/02 03:16:34;;;;;;;10.48;7.93;;;3.10;99.90;;;;;;5128814;27;20071;-79
2022/05/02 03:19:00;;;;;;;8.27;6.35;;;3.00;99.90;;;;;;5130961;27;20042;-79
2022/05/02 03:21:26;;;;;;;8.90;6.82;;;3.00;99.90;;;;;;5110436;28;20504;-79
2022/05/02 03:23:52;;;;;;;9.60;6.97;;;2.90;99.90;;;;;;5093663;28;20123;-79
2022/05/02 03:26:18;;;;;;;7.03;5.97;;;2.90;99.90;;;;;;5093634;28;20082;-79
2022/05/02 03:28:43;;;;;;;9.52;6.45;;;2.90;99.90;;;;;;5092458;28;20044;-78
2022/05/02 03:31:09;;;;;;;9.18;6.63;;;2.80;99.90;;;;;;5094520;28;20047;-78
2022/05/02 03:33:35;;;;;;;10.73;7.10;;;2.80;99.90;;;;;;5112271;28;20376;-79
2022/05/02 03:36:01;;;;;;;8.80;6.78;;;2.70;99.90;;;;;;5112863;28;20356;-78
2022/05/02 03:38:26;;;;;;;10.80;6.80;;;2.70;99.90;;;;;;5112176;28;20411;-78
2022/05/02 03:40:52;;;;;;;7.70;5.97;;;2.70;99.90;;;;;;5113209;28;20559;-78
2022/05/02 03:43:18;;;;;;;10.30;5.47;;;2.60;99.90;;;;;;5129962;27;20051;-78
2022/05/02 03:45:44;;;;;;;9.85;6.47;;;2.60;99.90;;;;;;5111775;28;20046;-78
2022/05/02 03:48:09;;;;;;;11.70;6.30;;;2.60;99.90;;;;;;5113077;28;20547;-78
2022/05/02 03:50:35;;;;;;;7.38;5.85;;;1.60;99.90;;;;;;5113004;28;20032;-78
2022/05/02 03:53:01;;;;;;;5.95;5.35;;;2.60;99.90;;;;;;5110210;27;20507;-78
2022/05/02 03:55:27;;;;;;;7.57;5.43;;;2.60;99.90;;;;;;5092977;28;20052;-78
2022/05/02 03:57:52;;;;;;;6.53;5.00;;;2.50;99.90;;;;;;5094241;28;20036;-78
2022/05/02 04:00:18;;;;;;;8.43;6.20;;;2.50;99.90;;;;;;5104805;28;20493;-78
2022/05/02 04:02:44;;;;;;;10.73;8.32;;;2.50;99.90;;;;;;5113708;28;20044;-78
2022/05/02 04:05:10;;;;;;;14.05;7.65;;;2.40;99.90;;;;;;5112726;28;20074;-78
2022/05/02 04:07:37;;;;;;;12.02;7.70;;;2.40;99.90;;;;;;5112822;28;20144;-78
2022/05/02 04:10:04;;;;;;;9.85;6.20;;;2.40;99.90;;;;;;5113533;28;20040;-78
2022/05/02 04:12:37;;;;;;;12.15;7.20;;;2.40;99.90;;;;;;5111383;28;20390;-78
2022/05/02 04:15:04;;;;;;;10.32;7.47;;;2.40;99.90;;;;;;5114398;28;20050;-78
2022/05/02 04:17:30;;;;;;;10.40;8.05;;;2.40;99.90;;;;;;5105146;28;20051;-79
2022/05/02 04:19:56;;;;;;;11.82;7.70;;;2.40;99.90;;;;;;5092396;28;20044;-78
2022/05/02 04:22:22;;;;;;;14.38;8.45;;;2.40;99.90;;;;;;5107116;28;20047;-78
2022/05/02 04:24:47;;;;;;;18.13;9.13;;;2.40;99.90;;;;;;5091552;28;20578;-78
2022/05/02 04:27:13;;;;;;;11.35;7.80;;;2.40;99.90;;;;;;5095815;28;20123;-78
2022/05/02 04:29:39;;;;;;;12.85;7.68;;;2.50;99.90;;;;;;5114147;28;20039;-78
2022/05/02 04:32:05;;;;;;;9.57;7.72;;;2.50;99.90;;;;;;5110149;28;20131;-78
2022/05/02 04:34:31;;;;;;;10.93;7.60;;;2.50;99.90;;;;;;5112631;28;20044;-78
2022/05/02 04:36:57;;;;;;;11.02;7.22;;;2.50;99.90;;;;;;5111386;28;20363;-78
2022/05/02 04:39:22;;;;;;;16.92;8.13;;;2.50;99.90;;;;;;5112557;28;20043;-78
2022/05/02 04:41:48;;;;;;;13.70;9.45;;;2.50;99.90;;;;;;5113961;28;20046;-78
2022/05/02 04:44:14;;;;;;;11.02;8.98;;;2.50;99.90;;;;;;5111369;28;20496;-78
2022/05/02 04:46:40;;;;;;;12.02;8.85;;;2.60;99.90;;;;;;5112047;28;20052;-78
2022/05/02 04:49:05;;;;;;;11.77;8.68;;;2.60;99.90;;;;;;5112341;28;20044;-78
2022/05/02 04:51:31;;;;;;;12.55;9.70;;;2.60;99.90;;;;;;5111367;28;20078;-78
2022/05/02 04:53:57;;;;;;;13.80;10.20;;;2.70;99.90;;;;;;5111912;28;20058;-78
2022/05/02 04:56:23;;;;;;;16.02;10.70;;;2.70;99.90;;;;;;5108723;28;20040;-78
2022/05/02 04:58:49;;;;;;;19.95;10.85;;;2.70;99.90;;;;;;5091299;28;20584;-78
2022/05/02 05:01:14;;;;;;;13.30;10.65;;;2.80;99.90;;;;;;5095041;28;20064;-78
2022/05/02 05:03:40;;;;;;;13.80;10.55;;;2.80;99.90;;;;;;5113865;28;20493;-78
2022/05/02 05:06:06;;;;;;;15.65;9.75;;;2.90;99.90;;;;;;5109914;28;20122;-78
2022/05/02 05:08:32;;;;;;;14.23;10.63;;;3.00;99.90;;;;;;5113733;28;20040;-78
2022/05/02 05:10:57;;;;;;;13.75;11.77;;;3.00;99.90;;;;;;5102764;28;20036;-78
2022/05/02 05:13:27;;;;;;;13.77;10.85;;;3.10;99.90;;;;;;5091365;28;20074;-75
2022/05/02 05:19:08;;;;;;;17.52;13.35;;;3.30;99.90;;;;;;5111350;28;20044;-77
2022/05/02 05:21:58;;;;;;;19.77;10.00;;;3.50;99.90;;;;;;5101026;28;20502;-77
2022/05/02 05:24:54;;;;;;;17.35;12.63;;;3.60;99.90;;;;;;5115067;28;20054;-76
2022/05/02 05:27:55;;;;;;;17.27;13.40;;;3.70;99.90;;;;;;5136304;27;20046;-76
2022/05/02 05:30:21;;;;;;;16.08;12.35;;;3.90;99.90;;;;;;5123403;27;20058;-77
2022/05/02 05:33:05;;;;;;;16.00;12.85;;;4.00;99.90;;;;;;5138026;27;20039;-77
2022/05/02 05:36:00;;;;;;;13.05;11.55;;;4.10;99.90;;;;;;5132369;27;20040;-77
2022/05/02 05:38:56;;;;;;;14.05;11.82;;;4.30;99.90;;;;;;5117345;28;20441;-76
2022/05/02 05:41:39;;;;;;;14.93;12.13;;;4.50;99.90;;;;;;5098875;28;20407;-77
2022/05/02 05:44:28;;;;;;;19.35;13.45;;;4.60;99.90;;;;;;5116801;27;20123;-77
2022/05/02 05:47:01;;;;;;;20.95;14.07;;;4.90;99.90;;;;;;5116040;28;20093;-77
2022/05/02 05:49:57;;;;;;;16.25;13.15;;;5.10;99.90;;;;;;5116290;28;20047;-77
2022/05/02 05:52:41;;;;;;;19.40;13.75;;;5.40;99.90;;;;;;5116760;28;20538;-77
2022/05/02 05:55:12;;;;;;;18.63;13.00;;;5.70;99.90;;;;;;5115108;28;20886;-79
2022/05/02 05:57:57;;;;;;;15.90;12.60;;;5.90;99.90;;;;;;5115577;28;20051;-77
2022/05/02 06:00:24;;;;;;;;;;;6.00;99.90;;;;;;5127862;27;20430;-77
2022/05/02 06:03:02;;;;;;;19.48;12.50;;;6.20;99.90;;;;;;5136458;27;19923;-77
2022/05/02 06:05:29;;;;;;;16.27;12.40;;;6.40;99.90;;;;;;5120507;27;20436;-78
2022/05/02 06:07:55;;;;;;;16.45;11.73;;;6.50;99.90;;;;;;5114789;27;20039;-78
2022/05/02 06:10:24;;;;;;;12.02;10.57;;;6.70;99.90;;;;;;5111469;27;20051;-78
2022/05/02 06:12:52;;;;;;;11.57;10.20;;;6.90;99.90;;;;;;5095864;28;20438;-78
2022/05/02 06:20:52;;;;;;;12.02;10.23;;;7.50;99.90;;;;;;5114953;28;20479;-77
2022/05/02 06:23:18;;;;;;;12.65;9.45;;;7.60;99.90;;;;;;5113533;28;20035;-77
2022/05/02 06:25:49;;;;;;;10.18;9.15;;;7.80;99.90;;;;;;5114890;28;20048;-78
2022/05/02 06:28:16;;;;;;;10.02;9.02;;;7.90;99.90;;;;;;5114087;28;20134;-78
2022/05/02 06:30:43;;;;;;;13.95;8.38;;;8.10;99.90;;;;;;5095134;28;20430;-78
2022/05/02 06:33:13;;;;;;;15.48;9.25;;;8.20;99.90;;;;;;5106622;28;20047;-77
2022/05/02 06:36:12;;;;;;;10.95;8.05;;;8.40;99.90;;;;;;5113330;28;20062;-78
2022/05/02 06:39:16;;;;;;;9.52;7.88;;;8.60;99.90;;;;;;5094185;28;20078;-78
2022/05/02 06:42:21;;;;;;;10.27;6.93;;;8.80;99.90;;;;;;5084356;28;20052;-78
2022/05/02 06:44:55;;;;;;;14.35;8.02;;;9.00;99.90;;;;;;5092844;28;20043;-78
2022/05/02 06:47:40;;;;;;;14.45;7.97;;;9.20;99.90;;;;;;5093965;28;20055;-78
2022/05/02 06:50:09;;;;;;;11.43;7.47;;;9.30;99.90;;;;;;5101520;28;20094;-78
2022/05/02 06:52:51;;;;;;;8.07;6.25;;;9.50;99.90;;;;;;5093157;28;20113;-78
2022/05/02 06:55:26;;;;;;;12.70;6.28;;;9.60;99.90;;;;;;5094337;28;20059;-78
2022/05/02 06:58:01;;;;;;;9.85;6.40;;;9.70;99.90;;;;;;5094112;28;20044;-79
2022/05/02 07:00:33;;;;;;;9.65;6.30;;;9.90;99.90;;;;;;5099702;28;20047;-79
2022/05/02 07:02:59;;;;;;;8.23;6.18;;;10.00;99.90;;;;;;5114320;28;20048;-78
2022/05/02 07:05:50;;;;;;;9.25;7.38;;;10.10;99.90;;;;;;5112908;28;20054;-79
2022/05/02 07:08:26;;;;;;;13.10;6.80;;;10.20;99.90;;;;;;5115424;28;20097;-78
2022/05/02 07:11:01;;;;;;;9.18;6.18;;;10.30;99.90;;;;;;5104534;28;20044;-78
2022/05/02 07:13:50;;;;;;;12.23;6.63;;;10.40;99.90;;;;;;5094071;28;20048;-79
2022/05/02 07:16:24;;;;;;;14.30;7.28;;;10.50;99.90;;;;;;5093777;28;20052;-79
2022/05/02 07:18:56;;;;;;;14.35;7.03;;;10.60;99.90;;;;;;5104179;28;20483;-78
2022/05/02 07:21:39;;;;;;;8.13;6.32;;;10.70;99.90;;;;;;5114232;28;20063;-78
2022/05/02 07:24:10;;;;;;;8.50;7.03;;;10.70;99.90;;;;;;5108287;28;20123;-79
2022/05/02 07:26:38;;;;;;;15.85;7.28;;;10.80;99.90;;;;;;5093972;28;20105;-78
2022/05/02 07:29:05;;;;;;;13.05;7.40;;;10.90;99.90;;;;;;5094539;28;20048;-78
2022/05/02 07:31:32;;;;;;;11.70;7.00;;;11.00;99.90;;;;;;5100316;28;20039;-77
2022/05/02 07:34:01;;;;;;;10.25;7.20;;;11.00;99.90;;;;;;5112649;28;20047;-78
2022/05/02 07:36:28;;;;;;;10.88;8.15;;;11.10;99.90;;;;;;5109696;28;20043;-78
2022/05/02 07:39:08;;;;;;;9.55;7.18;;;11.10;99.90;;;;;;5094239;28;20044;-77
2022/05/02 07:41:35;;;;;;;12.85;7.20;;;11.20;99.90;;;;;;5093024;28;20039;-77
2022/05/02 07:44:07;;;;;;;10.82;7.55;;;11.20;99.90;;;;;;5093257;28;20059;-77
2022/05/02 07:46:39;;;;;;;12.68;8.02;;;11.30;99.90;;;;;;5099461;28;20048;-78
2022/05/02 07:49:06;;;;;;;10.80;7.40;;;11.30;99.90;;;;;;5091956;28;20052;-78
2022/05/02 07:51:35;;;;;;;10.57;7.50;;;11.40;99.90;;;;;;5104370;28;20050;-78
2022/05/02 07:54:01;;;;;;;8.95;6.53;;;11.50;99.90;;;;;;5111907;28;20059;-77
2022/05/02 07:56:30;;;;;;;14.23;7.18;;;11.50;99.90;;;;;;5112410;28;20047;-78
2022/05/02 07:58:58;;;;;;;7.60;6.07;;;11.60;99.90;;;;;;5106156;28;20036;-78
2022/05/02 08:01:25;;;;;;;7.68;6.03;;;11.60;99.90;;;;;;5103877;28;20058;-78
2022/05/02 08:03:52;;;;;;;10.23;7.13;;;11.70;99.90;;;;;;5110281;28;20059;-78
2022/05/02 08:06:49;;;;;;;15.73;6.85;;;11.80;99.90;;;;;;5112812;28;20131;-78
2022/05/02 08:09:36;;;;;;;10.07;6.60;;;11.90;99.90;;;;;;5110673;28;20044;-78
2022/05/02 08:12:07;;;;;;;9.23;6.10;;;12.00;99.90;;;;;;5112816;28;20056;-78
2022/05/02 08:14:36;;;;;;;12.68;7.88;;;12.00;99.90;;;;;;5103503;28;20566;-78
2022/05/02 08:17:06;;;;;;;9.45;7.05;;;12.10;99.90;;;;;;5111149;28;20044;-77
2022/05/02 08:19:50;;;;;;;11.38;7.28;;;12.20;99.90;;;;;;5103508;28;20074;-79
2022/05/02 08:28:41;;;;;;;7.80;6.07;;;12.50;99.90;;;;;;5093508;28;20051;-78
2022/05/02 08:31:57;;;;;;;8.77;6.80;;;12.50;99.90;;;;;;5102772;28;20081;-77
2022/05/02 08:34:33;;;;;;;11.15;7.50;;;12.50;99.90;;;;;;5097515;28;20296;-77
2022/05/02 08:36:58;;;;;;;9.15;6.78;;;12.50;99.90;;;;;;5112703;28;20087;-77
2022/05/02 08:39:40;;;;;;;7.28;6.50;;;12.50;99.90;;;;;;5106850;28;20044;-78
2022/05/02 08:42:28;;;;;;;10.40;6.97;;;12.60;99.90;;;;;;5092365;28;20486;-77
2022/05/02 08:44:59;;;;;;;8.32;6.55;;;12.70;99.90;;;;;;5111016;28;20048;-78
2022/05/02 08:47:47;;;;;;;11.75;7.20;;;12.80;99.90;;;;;;5112813;28;20035;-77
2022/05/02 08:50:55;;;;;;;7.82;6.38;;;12.90;99.90;;;;;;5098298;28;20043;-78
2022/05/02 08:53:58;;;;;;;9.05;6.53;;;12.90;99.90;;;;;;5104219;28;20048;-78
2022/05/02 08:56:50;;;;;;;10.90;6.15;;;13.00;99.90;;;;;;5093541;28;20058;-79
2022/05/02 08:59:53;;;;;;;11.07;7.35;;;13.10;99.90;;;;;;5114213;28;20050;-77
2022/05/02 09:02:49;;;;;;;12.02;7.28;;;13.20;99.90;;;;;;5115087;28;20517;-77
2022/05/02 09:05:27;;;;;;;13.45;6.85;;;13.30;99.90;;;;;;5102813;28;20058;-78
2022/05/02 09:07:56;;;;;;;10.38;6.65;;;13.40;99.90;;;;;;5097311;28;20050;-78
2022/05/02 09:10:34;;;;;;;8.50;6.68;;;13.50;99.90;;;;;;5112208;28;20168;-78
2022/05/02 09:13:37;;;;;;;9.35;6.65;;;13.50;99.90;;;;;;5078538;28;20382;-78
2022/05/02 09:16:57;;;;;;;8.05;7.18;;;13.70;99.90;;;;;;5099737;28;20131;-78
2022/05/02 09:20:04;;;;;;;10.55;7.72;;;13.80;99.90;;;;;;5020753;28;20068;-78
2022/05/02 09:23:07;;;;;;;8.25;6.53;;;13.90;99.90;;;;;;5096004;28;20044;-78
2022/05/02 09:25:45;;;;;;;8.27;6.20;;;14.00;99.90;;;;;;5096355;28;20048;-79
2022/05/02 09:28:22;;;;;;;12.48;7.07;;;14.20;99.90;;;;;;5095349;28;20505;-78
2022/05/02 09:31:06;;;;;;;9.63;7.07;;;14.30;99.90;;;;;;5096004;28;20048;-78
2022/05/02 09:33:49;;;;;;;10.43;6.40;;;14.40;99.90;;;;;;5096239;28;20040;-79
2022/05/02 09:36:25;;;;;;;12.35;6.72;;;14.50;99.90;;;;;;5097160;28;20076;-79
2022/05/02 09:39:15;;;;;;;12.07;7.07;;;14.70;99.90;;;;;;5095808;28;20052;-78
2022/05/02 09:41:55;;;;;;;8.93;6.90;;;14.80;99.90;;;;;;5094479;28;20046;-79
2022/05/02 09:51:13;;;;;;;7.35;6.18;;;15.30;99.70;;;;;;5109671;28;20138;-78
2022/05/02 09:53:48;;;;;;;9.77;5.75;;;15.40;99.90;;;;;;5115288;28;20047;-80
2022/05/02 09:56:38;;;;;;;8.30;5.80;;;15.50;99.90;;;;;;5097707;28;20400;-78
2022/05/02 09:59:09;;;;;;;8.23;6.32;;;15.60;99.90;;;;;;5096365;28;20040;-78
2022/05/02 10:01:42;;;;;;;8.60;5.57;;;15.50;98.50;;;;;;5103204;28;20398;-79
2022/05/02 10:04:22;;;;;;;8.60;5.93;;;15.40;99.40;;;;;;5115084;28;20044;-78
2022/05/02 10:06:50;;;;;;;7.50;5.57;;;15.30;97.40;;;;;;5115420;28;20482;-78
2022/05/02 10:09:51;;;;;;;6.00;4.70;;;15.40;98.70;;;;;;5104997;28;20479;-80
2022/05/02 10:12:23;;;;;;;7.43;4.53;;;15.70;97.40;;;;;;5096107;28;20051;-79
2022/05/02 10:15:06;;;;;;;10.77;5.60;;;15.90;96.50;;;;;;5096427;28;20051;-79
2022/05/02 10:17:51;;;;;;;9.93;5.32;;;16.20;96.70;;;;;;5113196;28;20122;-79
2022/05/02 10:20:22;;;;;;;14.52;4.22;;;16.50;96.20;;;;;;5098725;28;20119;-78
2022/05/02 10:22:51;;;;;;;7.78;4.80;;;16.60;95.00;;;;;;5095716;28;20054;-78
2022/05/02 10:25:47;;;;;;;8.73;5.57;;;16.60;94.50;;;;;;5115129;28;20087;-79
2022/05/02 10:28:42;;;;;;;7.30;4.47;;;16.70;92.50;;;;;;5125673;27;20311;-79
2022/05/02 10:31:16;;;;;;;7.18;4.35;;;16.80;92.30;;;;;;5089221;28;20096;-79
2022/05/02 10:33:45;;;;;;;8.30;5.10;;;16.90;91.70;;;;;;5113680;28;20044;-79
2022/05/02 10:36:12;;;;;;;7.20;4.65;;;17.10;92.70;;;;;;5109896;28;20043;-79
2022/05/02 10:38:51;;;;;;;8.13;4.65;;;17.40;91.70;;;;;;5114992;28;20047;-79
2022/05/02 10:41:20;;;;;;;6.68;4.43;;;17.60;89.40;;;;;;5108298;28;20090;-78
2022/05/02 10:43:50;;;;;;;12.95;4.57;;;17.70;88.20;;;;;;5094573;28;20551;-78
2022/05/02 10:46:18;;;;;;;7.07;5.13;;;17.60;89.30;;;;;;5094879;28;20123;-79
2022/05/02 10:48:54;;;;;;;6.22;5.50;;;17.50;89.80;;;;;;5124120;27;20051;-77
2022/05/02 10:51:54;;;;;;;7.43;4.97;;;17.40;88.10;;;;;;5108329;28;20044;-79
2022/05/02 10:55:09;;;;;;;7.68;5.38;;;17.40;90.30;;;;;;5099072;28;20119;-78
2022/05/02 10:57:40;;;;;;;9.97;4.50;;;17.40;88.40;;;;;;5074573;28;20123;-79
2022/05/02 11:00:12;;;;;;;8.27;5.75;;;17.50;91.50;;;;;;5094208;28;20510;-79
2022/05/02 11:03:05;;;;;;;7.05;5.07;;;17.60;88.80;;;;;;5111149;28;20043;-79
2022/05/02 11:05:54;;;;;;;6.45;3.95;;;17.60;81.80;;;;;;5094915;28;20119;-77
2022/05/02 11:08:27;;;;;;;7.47;5.00;;;17.40;77.80;;;;;;5120990;27;20044;-78
2022/05/02 11:10:57;;;;;;;6.55;5.68;;;17.10;79.90;;;;;;5094112;28;20036;-78
2022/05/02 11:13:31;;;;;;;9.82;5.22;;;16.80;76.40;;;;;;5094426;28;20052;-78
2022/05/02 11:16:12;;;;;;;7.07;5.20;;;16.30;76.80;;;;;;5096901;28;20071;-78
2022/05/02 11:22:04;;;;;;;6.75;5.40;;;15.70;81.80;;;;;;5102325;28;20486;-77
2022/05/02 11:24:39;;;;;;;11.43;6.10;;;15.60;86.40;;;;;;5093414;28;20043;-76
2022/05/02 11:27:23;;;;;;;;;;;15.80;89.40;;;;;;5113944;28;20043;-77
2022/05/02 11:30:07;;;;;;;6.18;5.00;;;15.90;89.90;;;;;;5113700;28;19962;-78
2022/05/02 11:33:12;;;;;;;5.65;5.07;;;16.10;82.40;;;;;;5092660;28;20044;-77
2022/05/02 11:35:40;;;;;;;5.35;4.25;;;16.30;81.10;;;;;;5097025;28;20044;-77
2022/05/02 11:38:27;;;;;;;7.15;4.82;;;16.40;85.40;;;;;;5114719;28;20039;-77
2022/05/02 11:41:08;;;;;;;11.27;5.20;;;16.60;86.90;;;;;;5101034;28;20043;-77
2022/05/02 11:43:36;;;;;;;6.10;4.57;;;16.80;88.10;;;;;;5094267;28;20048;-78
2022/05/02 11:46:14;;;;;;;7.30;5.30;;;16.80;80.70;;;;;;5109238;28;20083;-78
2022/05/02 11:49:04;;;;;;;8.70;4.90;;;16.70;79.90;;;;;;5113813;28;20402;-77
2022/05/02 11:51:50;;;;;;;8.45;5.93;;;16.60;80.60;;;;;;5106670;28;20501;-77
2022/05/02 11:54:34;;;;;;;10.85;5.85;;;16.70;83.70;;;;;;5112424;28;20058;-77
2022/05/02 11:57:09;;;;;;;10.10;5.60;;;16.60;77.70;;;;;;5094161;28;20131;-76
2022/05/02 11:59:49;;;;;;;7.53;5.03;;;16.50;79.90;;;;;;5094261;28;20070;-77
2022/05/02 12:02:38;;;;;;;7.43;5.63;;;16.30;81.40;;;;;;5093133;28;20041;-77
2022/05/02 12:05:27;;;;;;;7.75;5.38;;;16.50;84.50;;;;;;5101163;28;20490;-77
2022/05/02 12:07:58;;;;;;;8.25;5.43;;;16.70;87.70;;;;;;5113719;28;20043;-79
2022/05/02 12:10:38;;;;;;;7.35;4.88;;;16.70;86.40;;;;;;5093216;28;20052;-78
2022/05/02 12:13:16;;;;;;;7.72;5.38;;;16.40;83.20;;;;;;5093504;28;20044;-78
2022/05/02 12:16:03;;;;;;;7.05;6.10;;;16.00;85.30;;;;;;5092099;28;20406;-77
2022/05/02 12:18:48;;;;;;;7.55;5.90;;;15.90;86.60;;;;;;5110115;28;20050;-77
2022/05/02 12:21:14;;;;;;;9.88;5.32;;;16.00;88.20;;;;;;5112588;28;20085;-78
2022/05/02 12:23:41;;;;;;;6.78;4.90;;;16.00;88.90;;;;;;5110932;28;20044;-76
2022/05/02 12:26:26;;;;;;;6.18;4.50;;;16.00;85.70;;;;;;5114125;28;20402;-78
2022/05/02 12:28:58;;;;;;;;;;;16.10;87.10;;;;;;5091835;28;20044;-77
2022/05/02 12:31:26;;;;;;;7.90;5.28;;;16.10;90.30;;;;;;5093469;28;19930;-76
2022/05/02 12:34:11;;;;;;;6.03;4.80;;;16.10;86.90;;;;;;5093404;28;20036;-77
2022/05/02 12:36:47;;;;;;;5.80;4.20;;;16.20;85.20;;;;;;5094008;28;20478;-76
2022/05/02 12:39:33;;;;;;;5.75;3.95;;;16.40;84.80;;;;;;5106119;28;20052;-77
2022/05/02 12:42:20;;;;;;;4.95;3.85;;;16.60;83.80;;;;;;5107134;28;20412;-76
2022/05/02 12:45:03;;;;;;;5.97;3.83;;;16.70;85.30;;;;;;5117536;28;20561;-77
2022/05/02 12:47:48;;;;;;;10.23;4.57;;;16.70;87.90;;;;;;5112192;28;20058;-76
2022/05/02 12:50:25;;;;;;;14.95;5.28;;;16.60;86.90;;;;;;5092629;28;20055;-78
2022/05/02 12:52:56;;;;;;;6.65;4.60;;;16.50;85.00;;;;;;5092773;28;20079;-77
2022/05/02 12:55:29;;;;;;;5.13;4.38;;;16.40;83.60;;;;;;5109663;28;20043;-76
2022/05/02 13:00:44;;;;;;;5.80;4.20;;;16.70;85.50;;;;;;5093445;28;20048;-76
2022/05/02 13:03:10;;;;;;;6.47;4.28;;;16.90;90.00;;;;;;5098295;28;20112;-76
2022/05/02 13:05:40;;;;;;;6.85;3.95;;;17.10;90.20;;;;;;5111795;28;20549;-76
2022/05/02 13:08:33;;;;;;;7.95;3.85;;;17.30;88.40;;;;;;5109036;28;20048;-76
2022/05/02 13:11:15;;;;;;;5.53;3.53;;;17.40;84.50;;;;;;5098112;28;20048;-76
2022/05/02 13:13:56;;;;;;;6.43;3.13;;;17.40;81.80;;;;;;5111159;28;20188;-77
2022/05/02 13:16:33;;;;;;;6.55;3.10;;;17.40;81.50;;;;;;5113476;28;20043;-76
2022/05/02 13:19:03;;;;;;;10.05;3.53;;;17.30;77.70;;;;;;5099124;28;20044;-76
2022/05/02 13:21:29;;;;;;;5.55;3.67;;;17.20;83.90;;;;;;5093222;28;20102;-76
2022/05/02 13:23:59;;;;;;;5.78;3.25;;;17.30;84.10;;;;;;5093668;28;20036;-77
2022/05/02 13:26:42;;;;;;;5.25;2.95;;;17.40;83.80;;;;;;5103795;28;20043;-77
2022/05/02 13:29:23;;;;;;;6.07;3.13;;;17.50;79.50;;;;;;5107203;28;20490;-76
2022/05/02 13:32:04;;;;;;;4.85;3.20;;;17.60;78.00;;;;;;5109594;28;20075;-77
2022/05/02 13:34:52;;;;;;;2.60;2.35;;;17.60;77.70;;;;;;5113469;28;20470;-77
2022/05/02 13:37:32;;;;;;;2.97;2.58;;;17.60;77.80;;;;;;5097380;28;20134;-76
2022/05/02 13:40:10;;;;;;;6.45;3.17;;;17.70;76.20;;;;;;5096107;28;20040;-77
2022/05/02 13:42:50;;;;;;;7.25;2.88;;;17.70;72.60;;;;;;5095393;28;20044;-77
2022/05/02 13:45:44;;;;;;;5.45;2.88;;;17.60;73.50;;;;;;5094200;28;20047;-77
2022/05/02 13:48:25;;;;;;;3.70;3.15;;;17.60;78.00;;;;;;5095728;28;20040;-78
2022/05/02 13:51:08;;;;;;;4.13;3.03;;;17.80;77.40;;;;;;5097230;28;20048;-76
2022/05/02 13:54:07;;;;;;;4.05;3.00;;;17.80;77.60;;;;;;5095357;28;20143;-76
2022/05/02 13:56:56;;;;;;;6.93;3.97;;;17.70;76.30;;;;;;5101982;28;20055;-77
2022/05/02 13:59:37;;;;;;;4.72;3.10;;;17.60;78.70;;;;;;5103355;28;20098;-77
2022/05/02 14:02:08;;;;;;;4.43;3.00;;;17.20;80.80;;;;;;5095935;28;20110;-77